Time;durP1;ratioP1;P1;durP2;ratioP2;P2;SDS_P1;SDS_P2;PMS_P1;PMS_P2;Temp;Humidity;BMP_temperature;BMP_pressure;BME280_temperature;BME280_humidity;BME280_pressure;Samples;Min_cycle;Max_cycle;Signal;HPM_P1;HPM_P2
2022/12/05 00:01:14;;;;;;;47.85;22.27;;;2.50;99.90;;;;;;5010217;28;20034;-80
2022/12/05 00:03:41;;;;;;;50.70;23.15;;;2.50;99.90;;;;;;4993756;28;20055;-80
2022/12/05 00:06:07;;;;;;;53.60;24.33;;;2.60;99.90;;;;;;5012957;28;20027;-80
2022/12/05 00:08:33;;;;;;;53.15;23.75;;;2.60;99.90;;;;;;4996013;28;20042;-80
2022/12/05 00:10:59;;;;;;;53.55;24.85;;;2.50;99.90;;;;;;5015181;28;20034;-80
2022/12/05 00:13:25;;;;;;;51.35;23.05;;;2.60;99.90;;;;;;4995717;28;20042;-79
2022/12/05 00:15:52;;;;;;;50.08;22.15;;;2.60;99.90;;;;;;5007462;28;20040;-79
2022/12/05 00:18:18;;;;;;;49.45;23.88;;;2.50;99.90;;;;;;4987701;28;20071;-79
2022/12/05 00:20:45;;;;;;;48.53;23.58;;;2.50;99.90;;;;;;5012447;28;20032;-80
2022/12/05 00:23:11;;;;;;;53.53;24.30;;;2.60;99.90;;;;;;5008249;28;20060;-80
2022/12/05 00:25:38;;;;;;;51.28;22.92;;;2.60;99.90;;;;;;5015036;28;20026;-78
2022/12/05 00:28:04;;;;;;;55.78;25.63;;;2.70;99.90;;;;;;5007547;28;20042;-80
2022/12/05 00:30:30;;;;;;;50.10;23.52;;;2.70;99.90;;;;;;5010752;28;20034;-80
2022/12/05 00:32:57;;;;;;;60.85;26.67;;;2.60;99.90;;;;;;4996156;28;20615;-80
2022/12/05 00:35:23;;;;;;;61.10;26.75;;;2.60;99.90;;;;;;5010906;28;20474;-80
2022/12/05 00:37:50;;;;;;;52.15;25.02;;;2.60;99.90;;;;;;5011177;28;20497;-80
2022/12/05 00:40:16;;;;;;;60.22;25.63;;;2.60;99.90;;;;;;4996570;28;20037;-80
2022/12/05 00:42:42;;;;;;;54.65;26.27;;;2.60;99.90;;;;;;5009071;28;20101;-79
2022/12/05 00:45:08;;;;;;;77.57;33.40;;;2.60;99.90;;;;;;5010098;28;20025;-80
2022/12/05 00:47:35;;;;;;;60.40;27.73;;;2.60;99.90;;;;;;4975960;28;20038;-81
2022/12/05 00:50:03;;;;;;;57.53;26.45;;;2.60;99.90;;;;;;5012059;28;20041;-80
2022/12/05 00:52:30;;;;;;;57.70;24.35;;;2.60;99.90;;;;;;4993741;28;20038;-80
2022/12/05 00:54:56;;;;;;;50.58;23.20;;;2.60;99.90;;;;;;5006903;28;20079;-80
2022/12/05 00:57:22;;;;;;;56.30;24.25;;;2.60;99.90;;;;;;5004397;28;20724;-81
2022/12/05 00:59:49;;;;;;;57.50;26.52;;;2.60;99.90;;;;;;5009688;28;20022;-80
2022/12/05 01:02:15;;;;;;;52.15;25.67;;;2.60;99.90;;;;;;4996739;28;20030;-80
2022/12/05 01:04:41;;;;;;;51.33;23.63;;;2.70;99.90;;;;;;5015059;28;20034;-80
2022/12/05 01:07:08;;;;;;;53.35;24.95;;;2.70;99.90;;;;;;5012744;28;20040;-79
2022/12/05 01:09:34;;;;;;;57.25;24.13;;;2.70;99.90;;;;;;5009679;28;20407;-80
2022/12/05 01:12:01;;;;;;;51.30;24.00;;;2.70;99.90;;;;;;5003971;28;20053;-80
2022/12/05 01:14:27;;;;;;;52.45;25.35;;;2.60;99.90;;;;;;5012370;28;20022;-80
2022/12/05 01:16:54;;;;;;;51.65;25.30;;;2.60;99.90;;;;;;5010616;28;20038;-79
2022/12/05 01:19:26;;;;;;;52.08;25.05;;;2.60;99.90;;;;;;5008859;28;20146;-80
2022/12/05 01:21:53;;;;;;;58.53;24.63;;;2.60;99.90;;;;;;5002929;28;20022;-80
2022/12/05 01:24:20;;;;;;;46.40;23.33;;;2.50;99.90;;;;;;5008103;28;20106;-80
2022/12/05 01:26:47;;;;;;;54.10;23.40;;;2.50;99.90;;;;;;5008379;28;20034;-80
2022/12/05 01:29:16;;;;;;;50.13;24.17;;;2.50;99.90;;;;;;4993858;28;20048;-80
2022/12/05 01:31:42;;;;;;;56.55;24.85;;;2.60;99.90;;;;;;5011042;28;20053;-79
2022/12/05 01:34:11;;;;;;;65.93;25.17;;;2.60;99.90;;;;;;5008963;28;20049;-81
2022/12/05 01:36:38;;;;;;;57.92;24.58;;;2.60;99.90;;;;;;4993793;28;20046;-80
2022/12/05 01:39:05;;;;;;;55.40;25.70;;;2.60;99.90;;;;;;5010488;28;20039;-80
2022/12/05 01:41:34;;;;;;;54.90;25.58;;;2.60;99.90;;;;;;5007887;28;20034;-79
2022/12/05 01:44:27;;;;;;;57.33;24.52;;;2.50;99.90;;;;;;4990838;28;20271;-79
2022/12/05 01:46:54;;;;;;;50.60;21.45;;;2.50;99.90;;;;;;4972750;28;20042;-79
2022/12/05 01:49:32;;;;;;;59.22;25.17;;;2.50;99.90;;;;;;4992134;28;20050;-79
2022/12/05 01:52:04;;;;;;;59.35;26.23;;;2.60;99.90;;;;;;5009103;28;20114;-79
2022/12/05 01:54:31;;;;;;;58.03;27.40;;;2.60;99.90;;;;;;5012271;28;20034;-80
2022/12/05 01:57:06;;;;;;;60.70;25.17;;;2.60;99.90;;;;;;5009308;28;20056;-79
2022/12/05 01:59:38;;;;;;;61.40;27.50;;;2.60;99.90;;;;;;4994823;28;20030;-79
2022/12/05 02:02:04;;;;;;;;;;;2.50;99.90;;;;;;4992152;28;20041;-80
2022/12/05 02:04:34;;;;;;;61.10;23.48;;;2.60;99.90;;;;;;5009728;28;19924;-79
2022/12/05 02:07:00;;;;;;;60.83;24.15;;;2.60;99.90;;;;;;5006274;28;20037;-80
2022/12/05 02:09:26;;;;;;;65.13;24.25;;;2.60;99.90;;;;;;5012376;28;20049;-81
2022/12/05 02:11:58;;;;;;;55.72;28.67;;;2.60;99.90;;;;;;5004897;28;20064;-81
2022/12/05 02:14:45;;;;;;;61.15;26.45;;;2.70;99.90;;;;;;5008182;28;20356;-81
2022/12/05 02:17:34;;;;;;;73.13;28.85;;;2.70;99.90;;;;;;5006415;28;20498;-79
2022/12/05 02:20:03;;;;;;;72.43;26.70;;;2.70;99.90;;;;;;5008457;28;20053;-81
2022/12/05 02:23:08;;;;;;;66.90;27.23;;;2.80;99.90;;;;;;4992141;28;20030;-81
2022/12/05 02:26:01;;;;;;;54.08;23.63;;;2.80;99.90;;;;;;5004840;28;20053;-78
2022/12/05 02:28:37;;;;;;;63.13;26.52;;;2.70;99.90;;;;;;5011374;28;20041;-81
2022/12/05 02:31:10;;;;;;;63.72;26.58;;;2.60;99.90;;;;;;5008173;28;20036;-81
2022/12/05 02:33:41;;;;;;;57.25;26.15;;;2.60;99.90;;;;;;5029560;28;20050;-79
2022/12/05 02:36:30;;;;;;;65.38;26.67;;;2.60;99.90;;;;;;5012738;28;20034;-79
2022/12/05 02:39:05;;;;;;;60.97;25.08;;;2.60;99.90;;;;;;4976680;28;20034;-79
2022/12/05 02:41:34;;;;;;;54.30;25.27;;;2.60;99.90;;;;;;5003600;28;20042;-80
2022/12/05 02:44:21;;;;;;;61.13;26.63;;;2.60;99.90;;;;;;5006166;28;20030;-80
2022/12/05 02:46:51;;;;;;;60.63;27.15;;;2.60;99.90;;;;;;4997072;28;20046;-79
2022/12/05 02:49:25;;;;;;;71.70;27.25;;;2.70;99.90;;;;;;5010921;28;20042;-79
2022/12/05 02:51:55;;;;;;;67.25;25.52;;;2.60;99.90;;;;;;5009360;28;20044;-80
2022/12/05 02:54:34;;;;;;;81.43;30.88;;;2.60;99.90;;;;;;5008257;28;20042;-79
2022/12/05 02:57:00;;;;;;;65.50;25.92;;;2.60;99.90;;;;;;4974189;28;20034;-79
2022/12/05 02:59:27;;;;;;;66.78;26.88;;;2.60;99.90;;;;;;5010356;28;20127;-79
2022/12/05 03:01:53;;;;;;;65.28;25.70;;;2.60;99.90;;;;;;4994002;28;20038;-81
2022/12/05 03:04:23;;;;;;;62.45;28.52;;;2.60;99.90;;;;;;4984607;28;20141;-81
2022/12/05 03:06:58;;;;;;;65.13;26.63;;;2.60;99.90;;;;;;5006913;28;20038;-80
2022/12/05 03:09:57;;;;;;;70.57;25.27;;;2.60;99.90;;;;;;5002415;28;20043;-80
2022/12/05 03:12:34;;;;;;;64.60;25.42;;;2.60;99.90;;;;;;5005472;28;20046;-80
2022/12/05 03:15:16;;;;;;;57.80;24.65;;;2.60;99.90;;;;;;5004409;28;20202;-81
2022/12/05 03:18:05;;;;;;;61.85;24.40;;;2.60;99.90;;;;;;4988097;28;20050;-80
2022/12/05 03:20:53;;;;;;;73.88;24.98;;;2.70;99.90;;;;;;5009189;28;20045;-80
2022/12/05 03:23:25;;;;;;;66.68;25.67;;;2.60;99.90;;;;;;4992788;28;20046;-80
2022/12/05 03:25:55;;;;;;;;;;;2.70;99.90;;;;;;5000013;28;20052;-80
2022/12/05 03:28:28;;;;;;;80.97;27.10;;;2.60;99.90;;;;;;5000410;28;19925;-80
2022/12/05 03:30:59;;;;;;;83.22;27.27;;;2.60;99.90;;;;;;4992845;28;20379;-80
2022/12/05 03:33:31;;;;;;;66.63;27.45;;;2.70;99.90;;;;;;5006632;28;20414;-80
2022/12/05 03:36:02;;;;;;;78.40;27.88;;;2.70;99.90;;;;;;5010834;28;20042;-79
2022/12/05 03:38:38;;;;;;;63.95;23.05;;;2.70;99.90;;;;;;4993304;28;20049;-80
2022/12/05 03:41:38;;;;;;;60.38;24.63;;;2.70;99.90;;;;;;4992891;28;20034;-79
2022/12/05 03:44:17;;;;;;;63.35;27.48;;;2.70;99.90;;;;;;5004172;28;20034;-80
2022/12/05 03:46:58;;;;;;;69.57;29.77;;;2.70;99.90;;;;;;5008202;28;20468;-79
2022/12/05 03:49:31;;;;;;;70.68;26.85;;;2.80;99.90;;;;;;5004964;28;20529;-81
2022/12/05 03:52:19;;;;;;;73.00;27.52;;;2.80;99.90;;;;;;5009680;28;20030;-80
2022/12/05 03:54:56;;;;;;;78.38;28.63;;;2.80;99.90;;;;;;5000766;28;20030;-80
2022/12/05 03:57:31;;;;;;;77.90;28.33;;;2.80;99.90;;;;;;5009827;28;20034;-80
2022/12/05 04:00:07;;;;;;;91.57;29.80;;;2.90;99.90;;;;;;5002622;28;20486;-81
2022/12/05 04:03:09;;;;;;;80.10;32.50;;;2.90;99.90;;;;;;4974831;28;20054;-80
2022/12/05 04:05:46;;;;;;;85.40;32.63;;;2.90;99.90;;;;;;5008112;28;20382;-80
2022/12/05 04:08:23;;;;;;;79.72;31.58;;;2.90;99.90;;;;;;4986947;28;20041;-81
2022/12/05 04:10:54;;;;;;;85.88;31.42;;;2.90;99.90;;;;;;5013405;28;20034;-80
2022/12/05 04:13:33;;;;;;;72.85;26.48;;;3.00;99.90;;;;;;5013020;28;20026;-81
2022/12/05 04:19:11;;;;;;;79.93;29.52;;;3.00;99.90;;;;;;4995985;28;20506;-80
2022/12/05 04:21:42;;;;;;;83.18;29.30;;;3.00;99.90;;;;;;5007401;28;20034;-81
2022/12/05 04:27:31;;;;;;;82.05;29.98;;;3.00;99.90;;;;;;5009118;28;20080;-80
2022/12/05 04:30:00;;;;;;;;;;;3.00;99.90;;;;;;5015149;28;20037;-81
2022/12/05 04:32:31;;;;;;;77.28;28.23;;;3.00;99.90;;;;;;5008538;28;19909;-80
2022/12/05 04:35:02;;;;;;;71.13;27.95;;;3.00;99.90;;;;;;5012480;28;20381;-81
2022/12/05 04:37:34;;;;;;;78.70;28.58;;;3.00;99.90;;;;;;5013051;28;20046;-81
2022/12/05 04:40:10;;;;;;;79.68;28.63;;;3.00;99.90;;;;;;5013522;28;20604;-81
2022/12/05 04:42:39;;;;;;;79.65;27.35;;;3.00;99.90;;;;;;4996425;28;20479;-81
2022/12/05 04:45:09;;;;;;;73.60;28.15;;;3.00;99.90;;;;;;4986877;28;20053;-81
2022/12/05 04:47:40;;;;;;;72.32;27.05;;;3.00;99.90;;;;;;4979110;28;20030;-81
2022/12/05 04:50:10;;;;;;;76.90;29.25;;;3.00;99.90;;;;;;5015012;28;20034;-81
2022/12/05 04:52:37;;;;;;;67.40;25.67;;;3.00;99.90;;;;;;5009995;28;20045;-80
2022/12/05 04:55:14;;;;;;;64.95;24.13;;;3.00;99.90;;;;;;5006423;28;20041;-80
2022/12/05 04:57:52;;;;;;;77.30;26.90;;;3.00;99.90;;;;;;5005012;28;20049;-78
2022/12/05 05:00:19;;;;;;;62.88;24.17;;;3.00;99.90;;;;;;4980293;28;20042;-80
2022/12/05 05:02:50;;;;;;;68.45;27.25;;;3.00;99.90;;;;;;5012339;28;20049;-80
2022/12/05 05:05:18;;;;;;;66.32;26.27;;;3.00;99.90;;;;;;4991512;28;20045;-80
2022/12/05 05:07:47;;;;;;;78.18;27.88;;;3.00;99.90;;;;;;5010550;28;20034;-79
2022/12/05 05:10:18;;;;;;;67.50;25.25;;;3.00;99.90;;;;;;4994974;28;20483;-81
2022/12/05 05:12:44;;;;;;;69.38;25.92;;;3.00;99.90;;;;;;4992935;28;20041;-80
2022/12/05 05:15:10;;;;;;;75.80;28.50;;;3.00;99.90;;;;;;5007468;28;20459;-80
2022/12/05 05:17:37;;;;;;;72.65;28.73;;;3.00;99.90;;;;;;5013001;28;20038;-80
2022/12/05 05:20:22;;;;;;;67.18;27.90;;;3.00;99.90;;;;;;5012114;28;20030;-80
2022/12/05 05:22:52;;;;;;;63.60;23.48;;;3.00;99.90;;;;;;4985151;28;20050;-80
2022/12/05 05:25:19;;;;;;;64.43;24.33;;;3.00;99.90;;;;;;5007731;28;20038;-80
2022/12/05 05:27:53;;;;;;;64.55;24.48;;;3.10;99.90;;;;;;5010859;28;20034;-80
2022/12/05 05:30:22;;;;;;;56.97;22.83;;;3.10;99.90;;;;;;5009621;28;20030;-80
2022/12/05 05:32:48;;;;;;;70.57;26.67;;;3.00;99.90;;;;;;4978334;28;20049;-79
2022/12/05 05:35:15;;;;;;;62.47;25.25;;;3.00;99.90;;;;;;5001591;28;20068;-79
2022/12/05 05:37:41;;;;;;;58.58;23.77;;;3.00;99.90;;;;;;5009155;28;20038;-78
2022/12/05 05:40:10;;;;;;;57.45;22.63;;;3.10;99.90;;;;;;5002802;28;20045;-80
2022/12/05 05:42:50;;;;;;;61.08;23.30;;;3.10;99.90;;;;;;5012993;28;20038;-80
2022/12/05 05:45:16;;;;;;;60.80;24.23;;;3.10;99.90;;;;;;5004320;28;20083;-80
2022/12/05 05:47:42;;;;;;;48.67;23.73;;;3.10;99.90;;;;;;5011233;28;20042;-79
2022/12/05 05:50:10;;;;;;;63.15;25.88;;;3.10;99.90;;;;;;4986719;28;20046;-81
2022/12/05 05:52:37;;;;;;;57.83;24.92;;;3.10;99.90;;;;;;5011277;28;20030;-81
2022/12/05 05:55:05;;;;;;;56.05;23.45;;;3.10;99.90;;;;;;5005893;28;20034;-80
2022/12/05 05:57:31;;;;;;;60.75;24.75;;;3.10;99.90;;;;;;4994161;28;20045;-80
2022/12/05 05:59:57;;;;;;;63.08;25.20;;;3.10;99.90;;;;;;5010260;28;20033;-79
2022/12/05 06:02:23;;;;;;;54.25;24.95;;;3.10;99.90;;;;;;5008792;28;20379;-80
2022/12/05 06:04:49;;;;;;;53.47;23.48;;;3.10;99.90;;;;;;5004161;28;20038;-79
2022/12/05 06:07:15;;;;;;;66.50;27.85;;;3.10;99.90;;;;;;5009956;28;20033;-81
2022/12/05 06:09:42;;;;;;;70.03;25.83;;;3.10;99.90;;;;;;5009620;28;20040;-79
2022/12/05 06:12:08;;;;;;;71.15;28.70;;;3.20;99.90;;;;;;5012727;28;20030;-79
2022/12/05 06:14:34;;;;;;;67.53;27.73;;;3.20;99.90;;;;;;5006074;28;20042;-79
2022/12/05 06:17:00;;;;;;;68.72;28.10;;;3.20;99.90;;;;;;4991457;28;20491;-79
2022/12/05 06:19:27;;;;;;;68.60;25.52;;;3.20;99.90;;;;;;5010390;28;20038;-79
2022/12/05 06:21:53;;;;;;;63.72;27.65;;;3.20;99.90;;;;;;5002889;28;20026;-79
2022/12/05 06:24:19;;;;;;;61.20;27.50;;;3.20;99.90;;;;;;5009924;28;20097;-79
2022/12/05 06:26:45;;;;;;;59.90;26.17;;;3.20;99.90;;;;;;5000714;28;20391;-80
2022/12/05 06:29:11;;;;;;;61.80;26.90;;;3.20;99.90;;;;;;5006270;28;20110;-80
2022/12/05 06:31:37;;;;;;;65.45;26.95;;;3.20;99.90;;;;;;5011876;28;20034;-80
2022/12/05 06:34:03;;;;;;;62.13;25.45;;;3.20;99.90;;;;;;5012896;28;20030;-84
2022/12/05 06:36:30;;;;;;;61.42;25.25;;;3.20;99.90;;;;;;5005155;28;20463;-81
2022/12/05 06:38:57;;;;;;;63.47;26.95;;;3.30;99.90;;;;;;5013841;28;20037;-79
2022/12/05 06:41:23;;;;;;;57.78;25.83;;;3.20;99.90;;;;;;5022527;28;20052;-77
2022/12/05 06:43:54;;;;;;;62.13;25.00;;;3.30;99.90;;;;;;5032436;28;20032;-77
2022/12/05 06:46:21;;;;;;;69.72;28.38;;;3.30;99.90;;;;;;5019892;28;20092;-80
2022/12/05 06:48:47;;;;;;;62.55;25.67;;;3.30;99.90;;;;;;4994816;28;20053;-80
2022/12/05 06:51:15;;;;;;;66.82;24.52;;;3.30;99.90;;;;;;5007757;28;20038;-80
2022/12/05 06:53:42;;;;;;;64.93;25.45;;;3.30;99.90;;;;;;5004638;28;20030;-79
2022/12/05 06:56:14;;;;;;;71.78;25.42;;;3.30;99.90;;;;;;5009782;28;20085;-80
2022/12/05 06:58:45;;;;;;;59.30;24.15;;;3.30;99.90;;;;;;5010747;28;20138;-81
2022/12/05 07:03:59;;;;;;;58.53;24.40;;;3.30;99.90;;;;;;5012013;28;20053;-80
2022/12/05 07:06:26;;;;;;;51.97;21.33;;;3.40;99.90;;;;;;5009926;28;20045;-81
2022/12/05 07:08:52;;;;;;;57.63;21.85;;;3.40;99.90;;;;;;4975650;28;20038;-81
2022/12/05 07:11:18;;;;;;;55.58;23.08;;;3.40;99.90;;;;;;5004802;28;20069;-81
2022/12/05 07:13:44;;;;;;;55.88;22.20;;;3.40;99.90;;;;;;5008962;28;20026;-79
2022/12/05 07:16:10;;;;;;;50.95;22.00;;;3.40;99.90;;;;;;5010044;28;20452;-81
2022/12/05 07:18:37;;;;;;;48.70;21.08;;;3.40;99.90;;;;;;5009992;28;20046;-80
2022/12/05 07:21:09;;;;;;;41.38;18.80;;;3.50;99.90;;;;;;4979189;28;20113;-81
2022/12/05 07:23:35;;;;;;;46.38;21.50;;;3.50;99.90;;;;;;5007606;28;20041;-81
2022/12/05 07:26:06;;;;;;;47.35;21.60;;;3.50;99.90;;;;;;5006338;28;20602;-80
2022/12/05 07:28:33;;;;;;;45.33;19.02;;;3.50;99.90;;;;;;4992412;28;20046;-80
2022/12/05 07:31:00;;;;;;;53.33;21.75;;;3.50;99.90;;;;;;5005131;28;20034;-80
2022/12/05 07:33:27;;;;;;;42.85;17.58;;;3.50;99.90;;;;;;5005557;28;20525;-80
2022/12/05 07:36:02;;;;;;;42.25;17.85;;;3.50;99.90;;;;;;4984007;28;20049;-81
2022/12/05 07:38:28;;;;;;;46.15;18.30;;;3.50;99.90;;;;;;4990257;28;20045;-81
2022/12/05 07:40:55;;;;;;;39.10;19.45;;;3.60;99.90;;;;;;5005217;28;20037;-81
2022/12/05 07:43:21;;;;;;;42.33;18.65;;;3.60;99.90;;;;;;5004199;28;20049;-83
2022/12/05 07:45:47;;;;;;;38.58;18.70;;;3.60;99.90;;;;;;5008361;28;20029;-82
2022/12/05 07:48:14;;;;;;;42.25;19.10;;;3.60;99.90;;;;;;5010999;28;20466;-83
2022/12/05 07:50:40;;;;;;;43.55;22.48;;;3.60;99.90;;;;;;4983137;28;20052;-81
2022/12/05 07:53:06;;;;;;;37.88;18.98;;;3.60;99.90;;;;;;4995885;28;20049;-82
2022/12/05 07:55:32;;;;;;;44.95;20.38;;;3.60;99.90;;;;;;5009390;28;20041;-83
2022/12/05 07:57:59;;;;;;;45.47;18.70;;;3.60;99.90;;;;;;5010803;28;20041;-83
2022/12/05 08:00:25;;;;;;;45.65;18.98;;;3.60;99.90;;;;;;4994279;28;20042;-82
2022/12/05 08:02:51;;;;;;;39.20;17.52;;;3.60;99.90;;;;;;4993590;28;20050;-83
2022/12/05 08:05:17;;;;;;;46.83;18.45;;;3.60;99.90;;;;;;5007774;28;20030;-83
2022/12/05 08:07:43;;;;;;;44.03;20.00;;;3.70;99.90;;;;;;5014448;28;20026;-82
2022/12/05 08:10:09;;;;;;;42.55;18.67;;;3.70;99.90;;;;;;5010659;28;20045;-83
2022/12/05 08:12:36;;;;;;;39.15;18.17;;;3.70;99.90;;;;;;5012244;28;20033;-83
2022/12/05 08:15:04;;;;;;;46.53;17.85;;;3.70;99.90;;;;;;4994863;28;20033;-83
2022/12/05 08:17:31;;;;;;;39.70;16.83;;;3.70;99.90;;;;;;4996998;28;20029;-83
2022/12/05 08:19:57;;;;;;;40.08;17.13;;;3.70;99.90;;;;;;5009724;28;20046;-83
2022/12/05 08:22:23;;;;;;;43.25;19.08;;;3.70;99.90;;;;;;5011598;28;20382;-83
2022/12/05 08:24:49;;;;;;;41.15;19.67;;;3.80;99.90;;;;;;5010250;28;20030;-83
2022/12/05 08:27:16;;;;;;;35.75;17.70;;;3.80;99.90;;;;;;5008946;28;20033;-83
2022/12/05 08:29:42;;;;;;;32.00;18.35;;;3.80;99.90;;;;;;5009930;28;20246;-83
2022/12/05 08:32:08;;;;;;;42.33;17.40;;;3.80;99.90;;;;;;4985930;28;20050;-82
2022/12/05 08:34:34;;;;;;;36.58;17.58;;;3.80;99.90;;;;;;5012991;28;20029;-85
2022/12/05 08:37:01;;;;;;;39.97;17.95;;;3.80;99.90;;;;;;4995451;28;20028;-85
2022/12/05 08:39:27;;;;;;;39.97;19.05;;;3.80;99.90;;;;;;4992013;28;20037;-85
2022/12/05 08:41:53;;;;;;;50.20;19.75;;;3.80;99.90;;;;;;5010327;28;20730;-85
2022/12/05 08:44:19;;;;;;;44.33;20.23;;;3.80;99.90;;;;;;5022602;28;20042;-85
2022/12/05 08:46:48;;;;;;;42.72;20.95;;;3.90;99.90;;;;;;5002933;28;20133;-85
2022/12/05 08:49:15;;;;;;;45.30;22.75;;;3.90;99.90;;;;;;5012673;28;20026;-86
2022/12/05 08:51:43;;;;;;;39.80;20.52;;;3.80;99.90;;;;;;4995792;28;20052;-86
2022/12/05 08:54:09;;;;;;;49.38;21.17;;;3.90;99.90;;;;;;5009783;28;20034;-85
2022/12/05 08:56:37;;;;;;;49.28;23.75;;;3.80;99.90;;;;;;5013330;28;20030;-84
2022/12/05 08:59:04;;;;;;;47.83;21.35;;;3.90;99.90;;;;;;4991837;28;20061;-83
2022/12/05 09:01:31;;;;;;;43.90;20.15;;;3.90;99.90;;;;;;5006914;28;20033;-84
2022/12/05 09:04:03;;;;;;;42.53;20.88;;;3.90;99.90;;;;;;4986558;28;20057;-86
2022/12/05 09:06:30;;;;;;;45.00;20.75;;;3.90;99.90;;;;;;4984051;28;20449;-82
2022/12/05 09:08:58;;;;;;;45.72;20.70;;;3.90;99.90;;;;;;4985960;28;20029;-83
2022/12/05 09:11:29;;;;;;;42.80;21.05;;;3.90;99.90;;;;;;4989508;28;20038;-83
2022/12/05 09:13:57;;;;;;;44.45;21.63;;;3.90;99.90;;;;;;4994490;28;20026;-84
2022/12/05 09:16:30;;;;;;;43.35;20.75;;;3.90;99.90;;;;;;4995078;28;20046;-83
2022/12/05 09:18:56;;;;;;;42.08;20.00;;;3.90;99.90;;;;;;5004097;28;20034;-85
2022/12/05 09:21:25;;;;;;;41.00;20.15;;;4.00;99.90;;;;;;4994864;28;20030;-84
2022/12/05 09:23:52;;;;;;;42.95;20.98;;;4.00;99.90;;;;;;4995908;28;20026;-85
2022/12/05 09:26:22;;;;;;;46.63;20.38;;;4.00;99.90;;;;;;4989295;28;20399;-85
2022/12/05 09:28:48;;;;;;;44.88;21.88;;;4.10;99.90;;;;;;4993391;28;20451;-84
2022/12/05 09:31:17;;;;;;;47.50;21.98;;;4.10;99.90;;;;;;4989976;28;20042;-85
2022/12/05 09:33:44;;;;;;;45.83;21.85;;;4.10;99.90;;;;;;4990791;28;20037;-86
2022/12/05 09:36:17;;;;;;;44.97;21.45;;;4.10;99.90;;;;;;4993176;28;20024;-85
2022/12/05 09:38:44;;;;;;;41.47;18.63;;;4.10;99.90;;;;;;5001154;28;20094;-84
2022/12/05 09:42:03;;;;;;;44.75;19.80;;;4.10;99.90;;;;;;4996374;28;20037;-84
2022/12/05 09:44:24;;;;;;;38.70;18.65;;;4.20;99.90;;;;;;4987731;28;20490;-85
2022/12/05 09:47:08;;;;;;;37.88;17.48;;;4.20;99.90;;;;;;5002039;28;20042;-85
2022/12/05 09:49:39;;;;;;;35.50;19.35;;;4.30;99.90;;;;;;4997724;28;20053;-85
2022/12/05 09:52:05;;;;;;;36.38;18.67;;;4.30;99.90;;;;;;4997574;28;20471;-85
2022/12/05 09:54:31;;;;;;;38.80;18.23;;;4.30;99.90;;;;;;5010630;28;20042;-85
2022/12/05 09:57:00;;;;;;;34.28;18.00;;;4.40;99.90;;;;;;4993561;28;20122;-85
2022/12/05 09:59:26;;;;;;;41.53;18.85;;;4.40;99.90;;;;;;4994137;28;20046;-85
2022/12/05 10:02:34;;;;;;;36.40;20.02;;;4.40;99.90;;;;;;4991567;28;20034;-84
2022/12/05 10:05:10;;;;;;;35.35;19.60;;;4.40;99.90;;;;;;4991434;28;20054;-85
2022/12/05 10:08:03;;;;;;;35.55;18.65;;;4.40;99.90;;;;;;4986284;28;20035;-86
2022/12/05 10:11:02;;;;;;;34.58;19.23;;;4.40;99.90;;;;;;4987629;28;20030;-86
2022/12/05 10:13:58;;;;;;;35.90;18.30;;;4.40;99.90;;;;;;4980624;28;20061;-86
2022/12/05 10:16:33;;;;;;;36.22;18.08;;;4.50;99.90;;;;;;4996491;28;20030;-86
2022/12/05 10:19:09;;;;;;;37.53;17.63;;;4.50;99.90;;;;;;4992197;28;20030;-86
2022/12/05 10:21:50;;;;;;;42.92;19.08;;;4.50;99.90;;;;;;4988803;28;20034;-85
2022/12/05 10:24:32;;;;;;;34.13;16.25;;;4.50;99.90;;;;;;4994274;28;20050;-85
2022/12/05 10:27:03;;;;;;;49.80;18.75;;;4.50;99.90;;;;;;4997673;28;20038;-86
2022/12/05 10:29:35;;;;;;;;;;;4.60;99.90;;;;;;4994664;28;20368;-86
2022/12/05 10:32:17;;;;;;;31.35;17.27;;;4.50;97.70;;;;;;4991242;28;19917;-87
2022/12/05 10:34:44;;;;;;;34.30;18.08;;;4.50;95.80;;;;;;4986842;28;20037;-86
2022/12/05 10:37:18;;;;;;;32.42;17.13;;;4.60;93.60;;;;;;4994545;28;20026;-86
2022/12/05 10:39:49;;;;;;;38.03;18.10;;;4.60;93.60;;;;;;4993105;28;20037;-87
2022/12/05 10:42:25;;;;;;;33.92;16.63;;;4.60;93.90;;;;;;4994304;28;20037;-88
2022/12/05 10:44:58;;;;;;;29.25;16.42;;;4.60;92.80;;;;;;4990257;28;20033;-86
2022/12/05 10:47:24;;;;;;;34.95;18.05;;;4.60;92.70;;;;;;4998199;28;20471;-87
2022/12/05 10:49:51;;;;;;;31.98;16.13;;;4.50;91.00;;;;;;5004115;28;20033;-80
2022/12/05 10:52:18;;;;;;;31.85;17.52;;;4.60;91.70;;;;;;5016103;28;20022;-81
2022/12/05 10:54:54;;;;;;;32.50;17.40;;;4.60;92.90;;;;;;5008063;28;20035;-87
2022/12/05 10:57:26;;;;;;;31.90;17.23;;;4.70;93.00;;;;;;4988495;28;20031;-86
2022/12/05 10:59:53;;;;;;;35.53;17.23;;;4.80;91.70;;;;;;4996535;28;20042;-89
2022/12/05 11:02:26;;;;;;;29.30;17.10;;;5.00;84.60;;;;;;4995912;28;20125;-87
2022/12/05 11:04:54;;;;;;;30.50;16.17;;;5.00;72.50;;;;;;4996448;28;20056;-87
2022/12/05 11:07:36;;;;;;;34.33;18.75;;;5.00;71.60;;;;;;4993298;28;20026;-89
2022/12/05 11:10:22;;;;;;;32.08;16.20;;;5.10;72.50;;;;;;5015244;28;20041;-90
2022/12/05 11:12:48;;;;;;;30.02;16.92;;;5.00;66.20;;;;;;5011747;28;20367;-85
2022/12/05 11:15:14;;;;;;;34.05;19.08;;;5.00;65.20;;;;;;5013405;28;20022;-89
2022/12/05 11:17:41;;;;;;;31.80;18.75;;;4.90;66.20;;;;;;5021639;28;20026;-85
2022/12/05 11:20:16;;;;;;;72.75;36.67;;;4.90;66.60;;;;;;5028048;28;20034;-88
2022/12/05 11:22:44;;;;;;;204.23;103.43;;;4.80;69.00;;;;;;4996235;28;20475;-89
2022/12/05 11:25:29;;;;;;;103.05;49.10;;;4.80;71.10;;;;;;5000790;28;20109;-90
2022/12/05 11:27:58;;;;;;;95.22;48.90;;;4.80;72.90;;;;;;5018320;28;20034;-88
2022/12/05 11:30:27;;;;;;;134.10;67.85;;;4.80;75.40;;;;;;5015012;28;20034;-89
2022/12/05 11:33:20;;;;;;;75.40;35.75;;;4.80;77.00;;;;;;4998776;28;20493;-90
2022/12/05 11:36:09;;;;;;;183.88;92.80;;;4.70;79.80;;;;;;5002018;28;20030;-81
2022/12/05 11:38:35;;;;;;;185.63;92.55;;;4.70;81.20;;;;;;5000494;28;20038;-90
2022/12/05 11:41:21;;;;;;;83.38;38.95;;;4.70;83.70;;;;;;4995560;28;20031;-92
2022/12/05 11:44:17;;;;;;;71.45;38.80;;;4.70;87.20;;;;;;5015615;28;20056;-87
2022/12/05 11:47:10;;;;;;;43.90;24.00;;;4.70;89.30;;;;;;5025931;28;20085;-90
2022/12/05 11:49:43;;;;;;;38.63;20.83;;;4.70;89.50;;;;;;5026396;28;20042;-91
2022/12/05 11:52:19;;;;;;;46.20;26.05;;;4.70;89.80;;;;;;5007663;28;20049;-85
2022/12/05 11:55:06;;;;;;;56.78;30.25;;;4.70;90.20;;;;;;5021219;28;20040;-87
2022/12/05 11:57:51;;;;;;;91.60;51.75;;;4.70;90.50;;;;;;5028188;28;20034;-85
2022/12/05 12:00:34;;;;;;;53.05;28.02;;;4.70;90.00;;;;;;5019367;28;20033;-91
2022/12/05 12:03:00;;;;;;;36.80;21.70;;;4.60;90.80;;;;;;4992446;28;20469;-87
2022/12/05 12:05:55;;;;;;;44.33;22.33;;;4.70;91.70;;;;;;4997584;28;20048;-87
2022/12/05 12:08:29;;;;;;;34.58;20.85;;;4.70;91.60;;;;;;4979535;28;20049;-86
2022/12/05 12:11:24;;;;;;;39.95;23.33;;;4.70;91.50;;;;;;5028729;28;20044;-86
2022/12/05 12:14:13;;;;;;;49.95;26.00;;;4.80;90.80;;;;;;4995569;28;20030;-89
2022/12/05 12:17:04;;;;;;;42.05;20.23;;;4.80;88.60;;;;;;4981419;28;20038;-87
2022/12/05 12:19:52;;;;;;;30.23;16.90;;;4.80;88.70;;;;;;4995586;28;20056;-87
2022/12/05 12:22:47;;;;;;;32.45;20.30;;;4.90;89.60;;;;;;4987902;28;20030;-86
2022/12/05 12:25:19;;;;;;;85.18;51.72;;;4.80;89.60;;;;;;4996195;28;20378;-87
2022/12/05 12:28:30;;;;;;;44.55;27.48;;;4.90;90.60;;;;;;4979572;28;20045;-85
2022/12/05 12:31:17;;;;;;;24.52;15.55;;;4.90;89.70;;;;;;4917958;29;20047;-86
2022/12/05 12:33:54;;;;;;;31.30;18.30;;;4.90;86.00;;;;;;4916958;29;20110;-86
2022/12/05 12:36:35;;;;;;;33.80;18.58;;;5.00;88.40;;;;;;4918097;29;20092;-87
2022/12/05 12:39:19;;;;;;;39.28;22.25;;;5.00;86.60;;;;;;4895504;29;20045;-86
2022/12/05 12:41:57;;;;;;;43.80;25.45;;;5.10;86.00;;;;;;4879748;29;20540;-86
2022/12/05 12:44:32;;;;;;;34.58;19.45;;;5.10;84.50;;;;;;4878938;29;20048;-86
2022/12/05 12:47:06;;;;;;;29.15;16.83;;;5.20;78.40;;;;;;4864792;29;20085;-87
2022/12/05 12:49:57;;;;;;;39.80;23.80;;;5.30;70.70;;;;;;4849047;29;20468;-87
2022/12/05 12:52:34;;;;;;;30.58;18.77;;;5.30;71.10;;;;;;4879686;29;20037;-86
2022/12/05 12:55:19;;;;;;;30.67;17.95;;;5.40;69.50;;;;;;4858295;29;20100;-86
2022/12/05 12:58:21;;;;;;;33.25;21.45;;;5.40;65.50;;;;;;4880294;29;20049;-86
2022/12/05 13:01:04;;;;;;;27.00;17.33;;;5.50;58.30;;;;;;4887503;29;20047;-85
2022/12/05 13:03:38;;;;;;;27.42;16.52;;;5.60;56.00;;;;;;4924002;29;20158;-86
2022/12/05 13:06:15;;;;;;;28.10;19.42;;;5.70;46.90;;;;;;4951516;29;20027;-87
2022/12/05 13:08:49;;;;;;;25.23;15.30;;;5.80;41.30;;;;;;4951192;29;20038;-86
2022/12/05 13:11:17;;;;;;;28.80;16.70;;;5.90;38.80;;;;;;4992159;28;20050;-86
2022/12/05 13:13:52;;;;;;;23.80;14.68;;;6.10;34.60;;;;;;5001409;28;20042;-87